| time (UTC) | temp F | wind direction | speed MPH | gust MPH | rain 1hr in | rain 24hr in | rain mn in | humidity % | barometer mb |
| 20260503190835 | 61 | 234 | 4.0 | 0.0 | 0.00 | 0.00 | 0.01 | 38 | 1017.6 |
| 20260503190320 | 61 | 239 | 2.0 | 0.0 | 0.00 | 0.00 | 0.01 | 39 | 1018.1 |
| 20260503185832 | 61 | 150 | 3.0 | 0.0 | 0.00 | 0.00 | 0.01 | 40 | 1018.1 |
| 20260503185318 | 60 | 213 | 4.0 | 0.0 | 0.00 | 0.00 | 0.01 | 38 | 1018.1 |
| 20260503184829 | 60 | 244 | 4.0 | 0.0 | 0.00 | 0.00 | 0.01 | 38 | 1018.1 |
| 20260503184316 | 60 | 224 | 4.0 | 0.0 | 0.00 | 0.00 | 0.01 | 38 | 1018.1 |
| 20260503183826 | 60 | 235 | 4.0 | 0.0 | 0.00 | 0.00 | 0.01 | 39 | 1018.1 |
| 20260503183321 | 59 | 188 | 3.0 | 0.0 | 0.00 | 0.00 | 0.01 | 39 | 1018.6 |
| 20260503182828 | 60 | 213 | 3.0 | 0.0 | 0.00 | 0.00 | 0.01 | 37 | 1018.6 |
| 20260503182337 | 60 | 223 | 4.0 | 0.0 | 0.00 | 0.00 | 0.01 | 40 | 1018.6 |
| 20260503180825 | 60 | 169 | 3.0 | 0.0 | 0.00 | 0.00 | 0.01 | 39 | 1018.6 |
| 20260503175334 | 59 | 188 | 4.0 | 0.0 | 0.00 | 0.00 | 0.01 | 40 | 1018.8 |
| 20260503174822 | 58 | 248 | 5.0 | 0.0 | 0.00 | 0.00 | 0.01 | 40 | 1019.0 |
| 20260503173820 | 59 | 265 | 3.0 | 0.0 | 0.00 | 0.00 | 0.01 | 41 | 1019.0 |
| 20260503173331 | 59 | 262 | 4.0 | 0.0 | 0.00 | 0.00 | 0.01 | 41 | 1019.3 |
| 20260503172821 | 58 | 210 | 4.0 | 0.0 | 0.00 | 0.00 | 0.01 | 40 | 1019.3 |
| 20260503172330 | 58 | 267 | 3.0 | 0.0 | 0.00 | 0.00 | 0.01 | 42 | 1019.3 |
| 20260503171819 | 59 | 233 | 2.0 | 0.0 | 0.00 | 0.00 | 0.00 | 44 | 1019.6 |
| 20260503171327 | 58 | 214 | 3.0 | 0.0 | 0.00 | 0.00 | 0.00 | 43 | 1019.6 |
| 20260503170835 | 58 | 201 | 3.0 | 0.0 | 0.00 | 0.00 | 0.00 | 43 | 1019.6 |
| 20260503170322 | 57 | 221 | 4.0 | 0.0 | 0.00 | 0.00 | 0.00 | 45 | 1019.7 |
| 20260503150818 | 53 | 250 | 4.0 | 0.0 | 0.00 | 0.00 | 0.00 | 53 | 1020.8 |
| 20260503150325 | 53 | 224 | 2.0 | 0.0 | 0.00 | 0.00 | 0.00 | 52 | 1020.8 |